createdAt,value
2022-11-27T00:01:17.117Z,56.72
2022-11-27T00:03:44.251Z,48.92
2022-11-27T00:06:20.622Z,28.35
2022-11-27T00:08:48.528Z,24.02
2022-11-27T00:11:18.402Z,23.73
2022-11-27T00:13:45.692Z,23.85
2022-11-27T00:16:13.955Z,33.92
2022-11-27T00:18:41.213Z,25.33
2022-11-27T00:21:10.985Z,30.20
2022-11-27T00:23:38.751Z,25.80
2022-11-27T00:26:06.488Z,24.50
2022-11-27T00:28:33.954Z,18.83
2022-11-27T00:31:02.150Z,20.65
2022-11-27T00:33:28.740Z,19.02
2022-11-27T00:35:55.392Z,28.60
2022-11-27T00:38:21.960Z,18.38
2022-11-27T00:40:48.966Z,14.32
2022-11-27T00:43:15.692Z,12.23
2022-11-27T00:45:42.207Z,15.25
2022-11-27T00:48:08.676Z,19.02
2022-11-27T00:50:35.181Z,19.63
2022-11-27T00:53:06.493Z,14.98
2022-11-27T00:55:36.608Z,18.88
2022-11-27T00:58:03.119Z,17.77
2022-11-27T01:00:29.728Z,18.30
2022-11-27T01:02:56.499Z,14.75
2022-11-27T01:05:26.418Z,17.58
2022-11-27T01:07:52.958Z,16.08
2022-11-27T01:10:21.417Z,17.58
2022-11-27T01:12:50.084Z,17.77
2022-11-27T01:15:16.661Z,12.27
2022-11-27T01:17:43.187Z,16.20
2022-11-27T01:20:10.110Z,17.30
2022-11-27T01:22:36.632Z,19.08
2022-11-27T01:25:03.271Z,17.60
2022-11-27T01:27:29.752Z,18.17
2022-11-27T01:29:56.355Z,18.77
2022-11-27T01:32:23.076Z,18.10
2022-11-27T01:34:50.120Z,23.00
2022-11-27T01:37:16.701Z,20.63
2022-11-27T01:39:43.316Z,18.42
2022-11-27T01:42:11.672Z,17.65
2022-11-27T01:44:38.493Z,16.60
2022-11-27T01:47:15.380Z,21.67
2022-11-27T01:49:50.528Z,20.95
2022-11-27T01:52:28.069Z,20.40
2022-11-27T01:54:59.142Z,20.70
2022-11-27T01:57:31.091Z,21.98
2022-11-27T02:00:00.589Z,19.52
2022-11-27T02:02:27.271Z,16.63
2022-11-27T02:04:55.141Z,17.35
2022-11-27T02:07:22.085Z,16.70
2022-11-27T02:09:48.884Z,16.00
2022-11-27T02:12:25.688Z,15.50
2022-11-27T02:15:14.111Z,23.13
2022-11-27T02:17:46.411Z,19.23
2022-11-27T02:20:28.057Z,18.73
2022-11-27T02:23:23.091Z,18.75
2022-11-27T02:25:55.754Z,17.20
2022-11-27T02:28:58.670Z,17.80
2022-11-27T02:31:25.681Z,18.60
2022-11-27T02:33:56.100Z,18.38
2022-11-27T02:36:29.656Z,19.38
2022-11-27T02:39:09.070Z,22.85
2022-11-27T02:41:47.215Z,14.90
2022-11-27T02:44:15.998Z,15.18
2022-11-27T02:46:42.948Z,15.95
2022-11-27T02:49:12.995Z,17.52
2022-11-27T02:51:49.533Z,17.65
2022-11-27T02:54:21.848Z,15.40
2022-11-27T02:56:49.923Z,19.33
2022-11-27T02:59:18.241Z,18.08
2022-11-27T03:01:52.068Z,16.67
2022-11-27T03:04:24.751Z,15.82
2022-11-27T03:06:56.457Z,19.40
2022-11-27T03:09:51.174Z,18.38
2022-11-27T03:12:19.062Z,15.85
2022-11-27T03:14:47.044Z,18.58
2022-11-27T03:17:44.132Z,17.63
2022-11-27T03:20:10.645Z,22.10
2022-11-27T03:22:37.259Z,21.48
2022-11-27T03:25:04.080Z,25.00
2022-11-27T03:27:38.744Z,25.80
2022-11-27T03:32:33.406Z,18.67
2022-11-27T03:35:00.532Z,18.15
2022-11-27T03:37:28.251Z,17.35
2022-11-27T03:39:55.101Z,19.60
2022-11-27T03:42:45.918Z,16.35
2022-11-27T03:45:43.728Z,16.83
2022-11-27T03:48:35.458Z,18.35
2022-11-27T03:51:04.684Z,19.35
2022-11-27T03:54:06.733Z,16.98
2022-11-27T03:56:33.209Z,17.13
2022-11-27T03:59:09.169Z,15.80
2022-11-27T04:01:36.485Z,16.48
2022-11-27T04:04:03.388Z,19.55
2022-11-27T04:06:30.615Z,16.65
2022-11-27T04:08:57.299Z,19.70
2022-11-27T04:11:23.772Z,15.65
2022-11-27T04:13:52.237Z,19.27
2022-11-27T04:16:19.366Z,13.43
2022-11-27T04:18:45.889Z,16.55
2022-11-27T04:21:12.850Z,16.30
2022-11-27T04:23:39.655Z,12.38
2022-11-27T04:26:06.548Z,12.80
2022-11-27T04:28:34.451Z,11.02
2022-11-27T04:31:01.636Z,13.57
2022-11-27T04:33:28.584Z,12.73
2022-11-27T04:35:55.212Z,6.10
2022-11-27T04:38:22.127Z,6.68
2022-11-27T04:40:48.669Z,9.52
2022-11-27T04:43:15.234Z,5.65
2022-11-27T04:45:41.790Z,7.68
2022-11-27T04:48:08.380Z,6.53
2022-11-27T04:50:34.916Z,9.32
2022-11-27T04:53:01.847Z,7.85
2022-11-27T04:55:29.275Z,5.20
2022-11-27T04:57:55.790Z,4.78
2022-11-27T05:00:22.319Z,3.60
2022-11-27T05:02:48.918Z,8.45
2022-11-27T05:05:17.145Z,6.57
2022-11-27T05:07:43.763Z,4.43
2022-11-27T05:10:11.305Z,10.05
2022-11-27T05:12:37.849Z,5.28
2022-11-27T05:15:04.985Z,11.20
2022-11-27T05:17:32.014Z,7.63
2022-11-27T05:19:58.502Z,8.70
2022-11-27T05:22:24.960Z,6.82
2022-11-27T05:24:51.482Z,7.35
2022-11-27T05:27:17.990Z,5.30
2022-11-27T05:29:44.602Z,5.75
2022-11-27T05:32:11.574Z,5.90
2022-11-27T05:34:38.415Z,4.22
2022-11-27T05:37:05.481Z,6.22
2022-11-27T05:39:32.065Z,6.88
2022-11-27T05:41:58.668Z,7.40
2022-11-27T05:44:26.549Z,5.45
2022-11-27T05:46:53.067Z,5.82
2022-11-27T05:49:19.648Z,3.28
2022-11-27T05:51:50.944Z,5.18
2022-11-27T05:54:17.934Z,2.95
2022-11-27T05:56:44.444Z,5.85
2022-11-27T05:59:11.049Z,6.47
2022-11-27T06:01:37.693Z,8.13
2022-11-27T06:04:04.383Z,6.70
2022-11-27T06:06:31.414Z,5.88
2022-11-27T06:08:57.880Z,4.43
2022-11-27T06:11:24.572Z,9.90
2022-11-27T06:13:51.213Z,5.30
2022-11-27T06:16:21.685Z,4.45
2022-11-27T06:18:53.233Z,5.32
2022-11-27T06:21:21.441Z,5.03
2022-11-27T06:23:48.439Z,6.22
2022-11-27T06:26:16.662Z,4.43
2022-11-27T06:28:43.641Z,3.78
2022-11-27T06:31:17.728Z,4.43
2022-11-27T06:36:11.841Z,3.45
2022-11-27T06:38:39.038Z,4.47
2022-11-27T06:41:08.521Z,3.78
2022-11-27T06:43:35.957Z,5.50
2022-11-27T06:46:04.230Z,2.92
2022-11-27T06:48:31.986Z,7.03
2022-11-27T06:51:03.310Z,3.95
2022-11-27T06:53:30.838Z,6.65
2022-11-27T06:55:57.845Z,5.63
2022-11-27T06:58:30.658Z,6.63
2022-11-27T07:01:01.934Z,4.45
2022-11-27T07:03:28.528Z,4.90
2022-11-27T07:05:55.188Z,6.85
2022-11-27T07:08:22.488Z,4.68
2022-11-27T07:10:49.029Z,4.45
2022-11-27T07:13:15.537Z,4.13
2022-11-27T07:15:42.497Z,5.28
2022-11-27T07:18:09.996Z,6.25
2022-11-27T07:20:36.491Z,5.25
2022-11-27T07:23:03.008Z,6.28
2022-11-27T07:25:29.604Z,5.00
2022-11-27T07:27:56.209Z,3.90
2022-11-27T07:30:22.745Z,8.43
2022-11-27T07:32:49.292Z,5.00
2022-11-27T07:35:15.836Z,5.10
2022-11-27T07:37:42.438Z,8.23
2022-11-27T07:40:09.816Z,4.50
2022-11-27T07:42:38.731Z,6.10
2022-11-27T07:45:08.411Z,5.25
2022-11-27T07:47:35.009Z,2.67
2022-11-27T07:50:01.725Z,8.77
2022-11-27T07:52:28.431Z,4.72
2022-11-27T07:54:54.975Z,6.90
2022-11-27T07:57:21.546Z,4.25
2022-11-27T07:59:48.113Z,5.07
2022-11-27T08:02:15.239Z,4.55
2022-11-27T08:04:42.305Z,4.07
2022-11-27T08:07:09.032Z,6.45
2022-11-27T08:09:35.908Z,6.03
2022-11-27T08:12:02.356Z,5.07
2022-11-27T08:14:29.025Z,6.45
2022-11-27T08:16:55.774Z,5.90
2022-11-27T08:19:22.388Z,4.95
2022-11-27T08:21:48.937Z,6.65
2022-11-27T08:24:15.639Z,5.35
2022-11-27T08:26:42.916Z,8.95
2022-11-27T08:29:12.520Z,4.47
2022-11-27T08:31:39.352Z,3.65
2022-11-27T08:34:06.146Z,7.50
2022-11-27T08:36:32.701Z,3.33
2022-11-27T08:38:59.327Z,4.47
2022-11-27T08:41:25.870Z,7.28
2022-11-27T08:43:52.478Z,12.38
2022-11-27T08:46:19.074Z,7.15
2022-11-27T08:48:45.659Z,7.80
2022-11-27T08:51:15.585Z,9.23
2022-11-27T08:53:45.154Z,8.48
2022-11-27T08:56:16.869Z,5.60
2022-11-27T08:58:44.653Z,7.18
2022-11-27T09:01:16.176Z,6.45
2022-11-27T09:03:43.478Z,7.18
2022-11-27T09:06:12.779Z,10.90
2022-11-27T09:08:40.356Z,12.88
2022-11-27T09:11:07.664Z,9.40
2022-11-27T09:13:36.937Z,11.82
2022-11-27T09:16:09.345Z,8.95
2022-11-27T09:18:35.897Z,4.85
2022-11-27T09:21:05.081Z,6.68
2022-11-27T09:23:32.342Z,9.63
2022-11-27T09:26:00.161Z,9.77
2022-11-27T09:28:31.404Z,5.97
2022-11-27T09:31:00.449Z,11.45
2022-11-27T09:33:28.434Z,4.97
2022-11-27T09:35:55.249Z,5.13
2022-11-27T09:38:23.673Z,11.07
2022-11-27T09:40:53.548Z,9.77
2022-11-27T09:43:29.584Z,7.75
2022-11-27T09:46:01.531Z,10.73
2022-11-27T09:48:39.289Z,6.05
2022-11-27T09:51:19.964Z,10.45
2022-11-27T09:53:58.048Z,6.75
2022-11-27T09:56:25.264Z,8.55
2022-11-27T09:58:59.569Z,9.40
2022-11-27T10:01:36.610Z,7.13
2022-11-27T10:04:12.991Z,8.45
2022-11-27T10:06:45.410Z,12.77
2022-11-27T10:09:36.744Z,5.20
2022-11-27T10:12:12.164Z,11.40
2022-11-27T10:14:38.785Z,5.28
2022-11-27T10:17:28.791Z,8.15
2022-11-27T10:20:23.823Z,7.32
2022-11-27T10:23:03.252Z,8.57
2022-11-27T10:25:39.885Z,5.50
2022-11-27T10:28:22.326Z,6.63
2022-11-27T10:30:58.087Z,11.73
2022-11-27T10:33:33.361Z,5.80
2022-11-27T10:36:01.346Z,7.13
2022-11-27T10:38:40.266Z,6.63
2022-11-27T10:41:48.306Z,7.75
2022-11-27T10:44:25.248Z,6.80
2022-11-27T10:46:54.453Z,9.48
2022-11-27T10:49:21.745Z,7.03
2022-11-27T10:51:48.465Z,7.15
2022-11-27T10:54:26.552Z,8.35
2022-11-27T10:57:12.053Z,10.82
2022-11-27T11:00:07.671Z,7.15
2022-11-27T11:02:38.614Z,9.55
2022-11-27T11:05:45.069Z,8.55
2022-11-27T11:11:02.307Z,5.60
2022-11-27T11:13:33.697Z,6.05
2022-11-27T11:16:05.038Z,7.85
2022-11-27T11:18:42.757Z,6.15
2022-11-27T11:21:33.653Z,8.23
2022-11-27T11:24:06.958Z,12.32
2022-11-27T11:26:52.759Z,8.10
2022-11-27T11:29:34.485Z,4.93
2022-11-27T11:32:11.252Z,7.03
2022-11-27T11:34:43.812Z,10.25
2022-11-27T11:37:23.787Z,6.47
2022-11-27T11:39:55.602Z,5.53
2022-11-27T11:42:25.645Z,5.30
2022-11-27T11:44:54.992Z,6.07
2022-11-27T11:47:26.693Z,9.13
2022-11-27T11:49:55.108Z,6.90
2022-11-27T11:52:24.539Z,6.07
2022-11-27T11:55:22.062Z,10.57
2022-11-27T11:58:11.941Z,4.00
2022-11-27T12:01:11.821Z,9.55
2022-11-27T12:04:02.954Z,4.32
2022-11-27T12:06:48.304Z,6.00
2022-11-27T12:09:17.674Z,5.65
2022-11-27T12:11:48.097Z,7.72
2022-11-27T12:14:32.553Z,9.90
2022-11-27T12:17:28.173Z,11.98
2022-11-27T12:20:35.906Z,7.20
2022-11-27T12:23:28.218Z,4.80
2022-11-27T12:26:26.963Z,6.90
2022-11-27T12:29:09.453Z,7.88
2022-11-27T12:32:00.941Z,11.23
2022-11-27T12:34:33.266Z,9.70
2022-11-27T12:37:07.062Z,4.35
2022-11-27T12:39:59.440Z,8.18
2022-11-27T12:42:33.440Z,8.20
2022-11-27T12:44:59.922Z,9.18
2022-11-27T12:47:40.738Z,9.30
2022-11-27T12:50:23.833Z,7.53
2022-11-27T12:53:09.819Z,5.80
2022-11-27T12:55:36.633Z,7.18
2022-11-27T12:58:07.816Z,8.38
2022-11-27T13:00:39.425Z,7.32
2022-11-27T13:03:39.251Z,7.10
2022-11-27T13:06:12.176Z,4.07
2022-11-27T13:09:09.933Z,7.38
2022-11-27T13:11:39.483Z,7.70
2022-11-27T13:14:18.722Z,7.03
2022-11-27T13:16:50.353Z,4.93
2022-11-27T13:19:29.122Z,7.65
2022-11-27T13:21:58.359Z,6.57
2022-11-27T13:24:27.086Z,7.82
2022-11-27T13:27:10.728Z,8.10
2022-11-27T13:29:48.177Z,9.43
2022-11-27T13:32:30.903Z,6.63
2022-11-27T13:35:07.811Z,3.70
2022-11-27T13:37:37.484Z,6.20
2022-11-27T13:40:21.038Z,7.15
2022-11-27T13:42:56.455Z,5.28
2022-11-27T13:45:26.657Z,18.17
2022-11-27T13:47:54.457Z,8.10
2022-11-27T13:50:25.808Z,6.97
2022-11-27T13:53:00.784Z,4.22
2022-11-27T13:55:33.924Z,6.43
2022-11-27T13:58:02.721Z,5.35
2022-11-27T14:00:44.839Z,7.03
2022-11-27T14:03:30.460Z,6.90
2022-11-27T14:05:57.672Z,7.35
2022-11-27T14:08:31.833Z,8.18
2022-11-27T14:10:59.885Z,6.32
2022-11-27T14:13:38.434Z,7.60
2022-11-27T14:16:22.057Z,8.27
2022-11-27T14:18:51.776Z,6.22
2022-11-27T14:21:38.818Z,5.75
2022-11-27T14:24:23.557Z,5.03
2022-11-27T14:26:50.073Z,4.85
2022-11-27T14:29:16.625Z,16.27
2022-11-27T14:31:43.762Z,5.50
2022-11-27T14:34:30.565Z,4.65
2022-11-27T14:36:57.924Z,7.45
2022-11-27T14:39:31.348Z,7.80
2022-11-27T14:42:03.124Z,6.35
2022-11-27T14:44:30.204Z,5.50
2022-11-27T14:47:00.497Z,8.45
2022-11-27T14:49:29.061Z,7.55
2022-11-27T14:52:01.669Z,6.07
2022-11-27T14:54:39.176Z,8.02
2022-11-27T14:57:07.245Z,8.20
2022-11-27T14:59:33.813Z,8.05
2022-11-27T15:02:15.332Z,7.55
2022-11-27T15:04:43.765Z,5.35
2022-11-27T15:07:21.985Z,6.70
2022-11-27T15:09:54.263Z,6.88
2022-11-27T15:12:24.026Z,8.63
2022-11-27T15:15:02.311Z,5.47
2022-11-27T15:17:32.820Z,5.40
2022-11-27T15:20:01.267Z,10.02
2022-11-27T15:22:27.941Z,10.40
2022-11-27T15:25:02.687Z,6.47
2022-11-27T15:27:33.668Z,8.75
2022-11-27T15:30:10.107Z,5.78
2022-11-27T15:32:51.943Z,7.70
2022-11-27T15:35:27.951Z,8.23
2022-11-27T15:37:58.264Z,12.80
2022-11-27T15:40:24.881Z,10.85
2022-11-27T15:42:51.351Z,9.75
2022-11-27T15:45:17.944Z,13.15
2022-11-27T15:47:44.591Z,11.00
2022-11-27T15:50:16.448Z,9.27
2022-11-27T15:52:43.275Z,12.57
2022-11-27T15:55:17.176Z,10.65
2022-11-27T15:57:43.795Z,9.32
2022-11-27T16:00:11.054Z,14.20
2022-11-27T16:02:38.374Z,11.57
2022-11-27T16:05:06.883Z,15.63
2022-11-27T16:07:34.361Z,8.43
2022-11-27T16:10:01.564Z,7.95
2022-11-27T16:12:28.130Z,9.65
2022-11-27T16:14:54.685Z,12.63
2022-11-27T16:17:21.506Z,9.45
2022-11-27T16:19:47.993Z,9.20
2022-11-27T16:22:14.557Z,14.60
2022-11-27T16:24:41.545Z,12.73
2022-11-27T16:27:08.209Z,8.82
2022-11-27T16:29:34.986Z,17.70
2022-11-27T16:32:02.195Z,8.73
2022-11-27T16:34:28.845Z,9.40
2022-11-27T16:36:55.373Z,13.77
2022-11-27T16:39:21.882Z,9.50
2022-11-27T16:41:48.480Z,11.68
2022-11-27T16:44:15.435Z,13.63
2022-11-27T16:46:43.883Z,12.43
2022-11-27T16:49:13.260Z,11.27
2022-11-27T16:51:40.279Z,13.80
2022-11-27T16:54:10.035Z,17.30
2022-11-27T16:56:38.398Z,10.10
2022-11-27T16:59:10.029Z,11.93
2022-11-27T17:01:37.898Z,8.02
2022-11-27T17:04:07.188Z,7.60
2022-11-27T17:06:37.294Z,7.40
2022-11-27T17:09:06.039Z,14.40
2022-11-27T17:11:35.481Z,12.00
2022-11-27T17:14:06.929Z,9.32
2022-11-27T17:16:35.004Z,12.85
2022-11-27T17:19:02.623Z,13.88
2022-11-27T17:21:34.480Z,9.55
2022-11-27T17:24:03.694Z,12.45
2022-11-27T17:26:31.875Z,10.85
2022-11-27T17:28:59.607Z,16.77
2022-11-27T17:31:31.264Z,13.13
2022-11-27T17:33:58.380Z,9.20
2022-11-27T17:36:26.047Z,9.20
2022-11-27T17:38:53.646Z,11.48
2022-11-27T17:41:21.324Z,7.05
2022-11-27T17:43:48.611Z,8.55
2022-11-27T17:46:34.584Z,10.13
2022-11-27T17:49:03.258Z,12.25
2022-11-27T17:51:32.771Z,13.75
2022-11-27T17:54:01.644Z,10.60
2022-11-27T17:56:29.273Z,10.60
2022-11-27T17:58:55.849Z,15.65
2022-11-27T18:01:29.034Z,15.75
2022-11-27T18:03:57.619Z,11.55
2022-11-27T18:06:24.207Z,9.45
2022-11-27T18:08:50.929Z,10.45
2022-11-27T18:11:22.301Z,13.77
2022-11-27T18:13:49.365Z,10.40
2022-11-27T18:16:19.528Z,12.82
2022-11-27T18:18:46.960Z,6.97
2022-11-27T18:21:21.016Z,11.07
2022-11-27T18:24:21.383Z,16.55
2022-11-27T18:27:06.740Z,17.20
2022-11-27T18:29:23.348Z,13.00
2022-11-27T18:31:51.182Z,6.95
2022-11-27T18:34:18.032Z,8.20
2022-11-27T18:36:45.811Z,10.57
2022-11-27T18:39:12.458Z,13.73
2022-11-27T18:41:39.041Z,12.68
2022-11-27T18:44:05.732Z,17.38
2022-11-27T18:46:32.725Z,13.57
2022-11-27T18:49:00.806Z,7.60
2022-11-27T18:51:27.695Z,11.57
2022-11-27T18:53:55.865Z,13.95
2022-11-27T18:56:27.640Z,8.77
2022-11-27T18:58:54.645Z,12.93
2022-11-27T19:01:25.971Z,12.65
2022-11-27T19:03:53.042Z,34.90
2022-11-27T19:06:21.460Z,22.83
2022-11-27T19:08:48.640Z,44.25
2022-11-27T19:11:19.903Z,37.88
2022-11-27T19:13:46.815Z,43.90
2022-11-27T19:16:15.779Z,15.90
2022-11-27T19:18:42.808Z,9.52
2022-11-27T19:21:17.430Z,13.43
2022-11-27T19:23:44.546Z,7.25
2022-11-27T19:26:13.479Z,12.52
2022-11-27T19:28:40.600Z,10.95
2022-11-27T19:31:10.786Z,10.68
2022-11-27T19:33:38.260Z,33.38
2022-11-27T19:36:08.605Z,18.80
2022-11-27T19:38:35.948Z,15.10
2022-11-27T19:41:04.360Z,14.10
2022-11-27T19:43:31.227Z,11.70
2022-11-27T19:45:58.014Z,14.23
2022-11-27T19:48:24.563Z,19.20
2022-11-27T19:50:51.808Z,9.95
2022-11-27T19:53:18.570Z,10.30
2022-11-27T19:55:52.849Z,8.68
2022-11-27T19:58:19.434Z,13.00
2022-11-27T20:00:46.005Z,8.23
2022-11-27T20:03:12.563Z,13.68
2022-11-27T20:05:39.232Z,14.93
2022-11-27T20:08:05.872Z,16.15
2022-11-27T20:10:33.074Z,19.58
2022-11-27T20:13:01.668Z,21.67
2022-11-27T20:15:29.312Z,17.65
2022-11-27T20:17:56.063Z,14.07
2022-11-27T20:20:22.794Z,11.73
2022-11-27T20:22:50.372Z,10.70
2022-11-27T20:25:21.683Z,15.52
2022-11-27T20:27:48.462Z,15.30
2022-11-27T20:30:15.165Z,19.08
2022-11-27T20:32:41.666Z,20.98
2022-11-27T20:35:08.520Z,24.23
2022-11-27T20:37:35.112Z,26.00
2022-11-27T20:40:01.708Z,26.70
2022-11-27T20:42:28.299Z,28.23
2022-11-27T20:44:54.826Z,22.85
2022-11-27T20:47:21.370Z,26.10
2022-11-27T20:49:47.955Z,18.95
2022-11-27T20:52:14.680Z,15.95
2022-11-27T20:54:41.341Z,12.48
2022-11-27T20:57:14.199Z,26.30
2022-11-27T20:59:41.910Z,38.97
2022-11-27T21:02:12.505Z,25.70
2022-11-27T21:04:39.135Z,33.20
2022-11-27T21:07:06.642Z,23.58
2022-11-27T21:09:33.750Z,21.65
2022-11-27T21:12:00.688Z,18.88
2022-11-27T21:14:27.413Z,14.13
2022-11-27T21:16:54.436Z,15.77
2022-11-27T21:19:25.269Z,14.07
2022-11-27T21:21:53.439Z,17.58
2022-11-27T21:24:22.147Z,13.80
2022-11-27T21:26:49.181Z,16.67
2022-11-27T21:29:16.070Z,11.65
2022-11-27T21:31:46.752Z,10.90
2022-11-27T21:34:13.949Z,10.63
2022-11-27T21:36:40.618Z,14.23
2022-11-27T21:39:09.239Z,16.85
2022-11-27T21:41:36.638Z,11.80
2022-11-27T21:44:04.422Z,16.40
2022-11-27T21:46:31.274Z,20.50
2022-11-27T21:49:00.429Z,11.80
2022-11-27T21:51:28.854Z,12.10
2022-11-27T21:53:56.986Z,13.43
2022-11-27T21:56:25.804Z,15.02
2022-11-27T21:58:52.790Z,14.32
2022-11-27T22:01:21.846Z,11.65
2022-11-27T22:03:51.399Z,14.25
2022-11-27T22:06:19.129Z,16.75
2022-11-27T22:08:47.565Z,12.07
2022-11-27T22:11:17.740Z,10.98
2022-11-27T22:13:44.834Z,13.75
2022-11-27T22:16:20.168Z,15.82
2022-11-27T22:18:47.144Z,17.60
2022-11-27T22:21:14.637Z,17.35
2022-11-27T22:23:41.761Z,19.98
2022-11-27T22:26:11.748Z,12.07
2022-11-27T22:28:38.816Z,10.27
2022-11-27T22:31:17.073Z,12.73
2022-11-27T22:33:45.049Z,12.15
2022-11-27T22:36:16.878Z,8.73
2022-11-27T22:38:45.424Z,12.57
2022-11-27T22:41:12.891Z,11.85
2022-11-27T22:43:40.539Z,15.00
2022-11-27T22:46:09.723Z,10.20
2022-11-27T22:48:36.635Z,12.75
2022-11-27T22:51:03.362Z,13.65
2022-11-27T22:53:30.225Z,14.90
2022-11-27T22:55:57.386Z,16.33
2022-11-27T22:58:24.056Z,13.93
2022-11-27T23:00:57.202Z,9.50
2022-11-27T23:03:23.847Z,10.82
2022-11-27T23:05:50.452Z,11.00
2022-11-27T23:08:18.947Z,9.43
2022-11-27T23:10:49.629Z,15.10
2022-11-27T23:13:16.969Z,16.30
2022-11-27T23:15:44.550Z,15.88
2022-11-27T23:18:11.733Z,20.85
2022-11-27T23:20:42.657Z,18.63
2022-11-27T23:23:10.126Z,19.17
2022-11-27T23:25:37.262Z,20.88
2022-11-27T23:28:04.132Z,20.80
2022-11-27T23:30:31.562Z,19.92
2022-11-27T23:32:58.103Z,8.75
2022-11-27T23:35:24.720Z,10.32
2022-11-27T23:37:51.373Z,10.65
2022-11-27T23:40:18.066Z,13.60
2022-11-27T23:42:44.610Z,13.55
2022-11-27T23:45:11.651Z,8.75
2022-11-27T23:47:38.158Z,8.65
2022-11-27T23:50:06.377Z,8.57
2022-11-27T23:52:32.990Z,16.40
2022-11-27T23:54:59.589Z,9.85
2022-11-27T23:57:26.160Z,11.10
2022-11-27T23:59:52.653Z,13.63
